sensor_id;sensor_type;location;lat;lon;timestamp;P1;durP1;ratioP1;P2;durP2;ratioP2
8665;SDS011;4370;48.916;8.380;2023-08-06T00:01:04;6.00;;;2.90;;
8665;SDS011;4370;48.916;8.380;2023-08-06T00:03:30;3.83;;;2.80;;
8665;SDS011;4370;48.916;8.380;2023-08-06T00:05:56;3.63;;;2.70;;
8665;SDS011;4370;48.916;8.380;2023-08-06T00:08:22;3.23;;;2.77;;
8665;SDS011;4370;48.916;8.380;2023-08-06T00:10:48;3.90;;;3.00;;
8665;SDS011;4370;48.916;8.380;2023-08-06T00:13:14;4.57;;;2.90;;
8665;SDS011;4370;48.916;8.380;2023-08-06T00:15:40;5.20;;;3.20;;
8665;SDS011;4370;48.916;8.380;2023-08-06T00:18:06;3.10;;;2.80;;
8665;SDS011;4370;48.916;8.380;2023-08-06T00:20:32;4.03;;;2.73;;
8665;SDS011;4370;48.916;8.380;2023-08-06T00:22:58;3.20;;;2.90;;
8665;SDS011;4370;48.916;8.380;2023-08-06T00:25:24;3.47;;;2.90;;
8665;SDS011;4370;48.916;8.380;2023-08-06T00:27:50;3.93;;;2.87;;
8665;SDS011;4370;48.916;8.380;2023-08-06T00:30:16;3.27;;;2.97;;
8665;SDS011;4370;48.916;8.380;2023-08-06T00:32:41;2.87;;;2.53;;
8665;SDS011;4370;48.916;8.380;2023-08-06T00:35:08;3.07;;;2.77;;
8665;SDS011;4370;48.916;8.380;2023-08-06T00:37:34;2.70;;;2.50;;
8665;SDS011;4370;48.916;8.380;2023-08-06T00:40:00;4.13;;;2.80;;
8665;SDS011;4370;48.916;8.380;2023-08-06T00:42:26;3.07;;;2.73;;
8665;SDS011;4370;48.916;8.380;2023-08-06T00:44:52;2.83;;;2.60;;
8665;SDS011;4370;48.916;8.380;2023-08-06T00:47:18;3.53;;;2.57;;
8665;SDS011;4370;48.916;8.380;2023-08-06T00:49:44;3.70;;;2.20;;
8665;SDS011;4370;48.916;8.380;2023-08-06T00:52:10;2.80;;;2.60;;
8665;SDS011;4370;48.916;8.380;2023-08-06T00:54:36;3.10;;;2.60;;
8665;SDS011;4370;48.916;8.380;2023-08-06T00:57:02;3.33;;;2.73;;
8665;SDS011;4370;48.916;8.380;2023-08-06T00:59:29;3.83;;;2.67;;
8665;SDS011;4370;48.916;8.380;2023-08-06T01:01:56;4.63;;;2.50;;
8665;SDS011;4370;48.916;8.380;2023-08-06T01:04:22;2.53;;;2.20;;
8665;SDS011;4370;48.916;8.380;2023-08-06T01:06:51;3.10;;;2.30;;
8665;SDS011;4370;48.916;8.380;2023-08-06T01:09:27;2.93;;;2.30;;
8665;SDS011;4370;48.916;8.380;2023-08-06T01:14:53;2.30;;;2.10;;
8665;SDS011;4370;48.916;8.380;2023-08-06T01:17:21;2.80;;;2.50;;
8665;SDS011;4370;48.916;8.380;2023-08-06T01:19:51;4.63;;;2.70;;
8665;SDS011;4370;48.916;8.380;2023-08-06T01:22:17;3.27;;;2.50;;
8665;SDS011;4370;48.916;8.380;2023-08-06T01:24:44;2.30;;;2.10;;
8665;SDS011;4370;48.916;8.380;2023-08-06T01:27:14;4.43;;;2.40;;
8665;SDS011;4370;48.916;8.380;2023-08-06T01:29:53;3.17;;;2.40;;
8665;SDS011;4370;48.916;8.380;2023-08-06T01:32:20;2.67;;;2.23;;
8665;SDS011;4370;48.916;8.380;2023-08-06T01:34:46;5.63;;;2.73;;
8665;SDS011;4370;48.916;8.380;2023-08-06T01:37:13;3.63;;;2.50;;
8665;SDS011;4370;48.916;8.380;2023-08-06T01:39:39;3.57;;;2.47;;
8665;SDS011;4370;48.916;8.380;2023-08-06T01:42:05;5.67;;;2.40;;
8665;SDS011;4370;48.916;8.380;2023-08-06T01:44:31;6.10;;;2.53;;
8665;SDS011;4370;48.916;8.380;2023-08-06T01:46:57;6.20;;;2.60;;
8665;SDS011;4370;48.916;8.380;2023-08-06T01:49:23;5.13;;;2.57;;
8665;SDS011;4370;48.916;8.380;2023-08-06T01:51:49;3.77;;;2.23;;
8665;SDS011;4370;48.916;8.380;2023-08-06T01:54:15;3.27;;;2.77;;
8665;SDS011;4370;48.916;8.380;2023-08-06T01:56:41;4.43;;;2.67;;
8665;SDS011;4370;48.916;8.380;2023-08-06T01:59:07;4.20;;;2.30;;
8665;SDS011;4370;48.916;8.380;2023-08-06T02:01:33;4.67;;;2.50;;
8665;SDS011;4370;48.916;8.380;2023-08-06T02:03:59;6.27;;;2.30;;
8665;SDS011;4370;48.916;8.380;2023-08-06T02:06:25;3.53;;;2.27;;
8665;SDS011;4370;48.916;8.380;2023-08-06T02:08:51;3.80;;;2.30;;
8665;SDS011;4370;48.916;8.380;2023-08-06T02:11:17;4.33;;;2.50;;
8665;SDS011;4370;48.916;8.380;2023-08-06T02:13:43;2.97;;;2.30;;
8665;SDS011;4370;48.916;8.380;2023-08-06T02:16:09;4.40;;;2.47;;
8665;SDS011;4370;48.916;8.380;2023-08-06T02:18:35;3.10;;;2.37;;
8665;SDS011;4370;48.916;8.380;2023-08-06T02:21:01;2.57;;;2.30;;
8665;SDS011;4370;48.916;8.380;2023-08-06T02:23:27;7.53;;;2.70;;
8665;SDS011;4370;48.916;8.380;2023-08-06T02:25:57;3.93;;;2.50;;
8665;SDS011;4370;48.916;8.380;2023-08-06T02:28:23;4.67;;;2.27;;
8665;SDS011;4370;48.916;8.380;2023-08-06T02:30:49;5.03;;;2.53;;
8665;SDS011;4370;48.916;8.380;2023-08-06T02:33:15;3.77;;;2.47;;
8665;SDS011;4370;48.916;8.380;2023-08-06T02:35:41;5.93;;;2.47;;
8665;SDS011;4370;48.916;8.380;2023-08-06T02:38:07;4.97;;;2.70;;
8665;SDS011;4370;48.916;8.380;2023-08-06T02:40:33;5.33;;;2.70;;
8665;SDS011;4370;48.916;8.380;2023-08-06T02:42:59;3.03;;;2.17;;
8665;SDS011;4370;48.916;8.380;2023-08-06T02:45:25;6.03;;;2.50;;
8665;SDS011;4370;48.916;8.380;2023-08-06T02:47:51;5.47;;;2.50;;
8665;SDS011;4370;48.916;8.380;2023-08-06T02:50:17;4.63;;;2.43;;
8665;SDS011;4370;48.916;8.380;2023-08-06T02:52:43;3.77;;;2.20;;
8665;SDS011;4370;48.916;8.380;2023-08-06T02:55:09;4.80;;;2.73;;
8665;SDS011;4370;48.916;8.380;2023-08-06T02:57:35;4.57;;;2.30;;
8665;SDS011;4370;48.916;8.380;2023-08-06T03:00:01;3.73;;;2.40;;
8665;SDS011;4370;48.916;8.380;2023-08-06T03:02:27;5.90;;;2.50;;
8665;SDS011;4370;48.916;8.380;2023-08-06T03:04:53;4.40;;;2.40;;
8665;SDS011;4370;48.916;8.380;2023-08-06T03:07:19;3.00;;;2.40;;
8665;SDS011;4370;48.916;8.380;2023-08-06T03:09:45;4.43;;;2.20;;
8665;SDS011;4370;48.916;8.380;2023-08-06T03:12:11;4.63;;;2.20;;
8665;SDS011;4370;48.916;8.380;2023-08-06T03:14:37;4.97;;;2.07;;
8665;SDS011;4370;48.916;8.380;2023-08-06T03:17:03;2.83;;;2.00;;
8665;SDS011;4370;48.916;8.380;2023-08-06T03:19:29;5.03;;;2.20;;
8665;SDS011;4370;48.916;8.380;2023-08-06T03:21:55;4.07;;;1.87;;
8665;SDS011;4370;48.916;8.380;2023-08-06T03:24:21;3.43;;;1.80;;
8665;SDS011;4370;48.916;8.380;2023-08-06T03:26:47;3.60;;;2.00;;
8665;SDS011;4370;48.916;8.380;2023-08-06T03:29:13;3.40;;;2.37;;
8665;SDS011;4370;48.916;8.380;2023-08-06T03:31:39;6.03;;;2.00;;
8665;SDS011;4370;48.916;8.380;2023-08-06T03:34:05;5.77;;;2.17;;
8665;SDS011;4370;48.916;8.380;2023-08-06T03:36:31;4.57;;;1.87;;
8665;SDS011;4370;48.916;8.380;2023-08-06T03:38:57;3.77;;;1.80;;
8665;SDS011;4370;48.916;8.380;2023-08-06T03:41:23;3.90;;;2.00;;
8665;SDS011;4370;48.916;8.380;2023-08-06T03:43:49;3.43;;;1.80;;
8665;SDS011;4370;48.916;8.380;2023-08-06T03:46:15;5.33;;;2.47;;
8665;SDS011;4370;48.916;8.380;2023-08-06T03:48:41;5.47;;;2.30;;
8665;SDS011;4370;48.916;8.380;2023-08-06T03:51:07;3.07;;;1.87;;
8665;SDS011;4370;48.916;8.380;2023-08-06T03:53:33;4.13;;;1.67;;
8665;SDS011;4370;48.916;8.380;2023-08-06T03:55:59;3.17;;;1.70;;
8665;SDS011;4370;48.916;8.380;2023-08-06T03:58:25;4.23;;;1.73;;
8665;SDS011;4370;48.916;8.380;2023-08-06T04:01:01;2.50;;;1.50;;
8665;SDS011;4370;48.916;8.380;2023-08-06T04:03:28;1.50;;;1.40;;
8665;SDS011;4370;48.916;8.380;2023-08-06T04:05:54;5.30;;;1.70;;
8665;SDS011;4370;48.916;8.380;2023-08-06T04:08:20;5.13;;;1.77;;
8665;SDS011;4370;48.916;8.380;2023-08-06T04:10:49;4.10;;;1.40;;
8665;SDS011;4370;48.916;8.380;2023-08-06T04:13:15;2.37;;;1.50;;
8665;SDS011;4370;48.916;8.380;2023-08-06T04:15:41;4.17;;;1.60;;
8665;SDS011;4370;48.916;8.380;2023-08-06T04:18:06;2.40;;;1.30;;
8665;SDS011;4370;48.916;8.380;2023-08-06T04:20:32;5.03;;;1.50;;
8665;SDS011;4370;48.916;8.380;2023-08-06T04:22:58;4.97;;;1.60;;
8665;SDS011;4370;48.916;8.380;2023-08-06T04:25:24;4.50;;;1.80;;
8665;SDS011;4370;48.916;8.380;2023-08-06T04:27:50;2.83;;;1.60;;
8665;SDS011;4370;48.916;8.380;2023-08-06T04:30:16;3.87;;;1.80;;
8665;SDS011;4370;48.916;8.380;2023-08-06T04:32:42;2.53;;;1.80;;
8665;SDS011;4370;48.916;8.380;2023-08-06T04:35:08;2.83;;;1.80;;
8665;SDS011;4370;48.916;8.380;2023-08-06T04:37:34;2.80;;;1.93;;
8665;SDS011;4370;48.916;8.380;2023-08-06T04:40:00;3.67;;;2.10;;
8665;SDS011;4370;48.916;8.380;2023-08-06T04:42:26;2.33;;;1.80;;
8665;SDS011;4370;48.916;8.380;2023-08-06T04:44:52;6.07;;;2.10;;
8665;SDS011;4370;48.916;8.380;2023-08-06T04:47:18;4.43;;;1.80;;
8665;SDS011;4370;48.916;8.380;2023-08-06T04:49:44;2.77;;;2.00;;
8665;SDS011;4370;48.916;8.380;2023-08-06T04:52:10;3.93;;;1.83;;
8665;SDS011;4370;48.916;8.380;2023-08-06T04:54:36;3.73;;;1.90;;
8665;SDS011;4370;48.916;8.380;2023-08-06T04:57:02;5.53;;;2.10;;
8665;SDS011;4370;48.916;8.380;2023-08-06T04:59:28;3.13;;;1.63;;
8665;SDS011;4370;48.916;8.380;2023-08-06T05:01:54;7.73;;;2.10;;
8665;SDS011;4370;48.916;8.380;2023-08-06T05:04:20;4.47;;;1.87;;
8665;SDS011;4370;48.916;8.380;2023-08-06T05:06:46;3.40;;;1.70;;
8665;SDS011;4370;48.916;8.380;2023-08-06T05:09:12;4.33;;;2.13;;
8665;SDS011;4370;48.916;8.380;2023-08-06T05:11:37;4.43;;;2.00;;
8665;SDS011;4370;48.916;8.380;2023-08-06T05:14:03;4.80;;;1.77;;
8665;SDS011;4370;48.916;8.380;2023-08-06T05:16:29;3.60;;;1.70;;
8665;SDS011;4370;48.916;8.380;2023-08-06T05:18:55;4.40;;;1.70;;
8665;SDS011;4370;48.916;8.380;2023-08-06T05:21:21;4.17;;;1.50;;
8665;SDS011;4370;48.916;8.380;2023-08-06T05:23:47;2.57;;;1.30;;
8665;SDS011;4370;48.916;8.380;2023-08-06T05:26:13;3.73;;;1.50;;
8665;SDS011;4370;48.916;8.380;2023-08-06T05:28:43;3.07;;;1.47;;
8665;SDS011;4370;48.916;8.380;2023-08-06T05:31:09;3.43;;;1.93;;
8665;SDS011;4370;48.916;8.380;2023-08-06T05:33:35;1.87;;;1.37;;
8665;SDS011;4370;48.916;8.380;2023-08-06T05:36:01;3.27;;;1.40;;
8665;SDS011;4370;48.916;8.380;2023-08-06T05:38:27;3.33;;;1.70;;
8665;SDS011;4370;48.916;8.380;2023-08-06T05:40:53;3.67;;;1.53;;
8665;SDS011;4370;48.916;8.380;2023-08-06T05:43:20;3.80;;;1.37;;
8665;SDS011;4370;48.916;8.380;2023-08-06T05:45:46;1.87;;;1.30;;
8665;SDS011;4370;48.916;8.380;2023-08-06T05:48:12;3.80;;;1.20;;
8665;SDS011;4370;48.916;8.380;2023-08-06T05:50:38;6.13;;;1.33;;
8665;SDS011;4370;48.916;8.380;2023-08-06T05:53:04;2.37;;;1.10;;
8665;SDS011;4370;48.916;8.380;2023-08-06T05:55:30;2.00;;;1.13;;
8665;SDS011;4370;48.916;8.380;2023-08-06T05:57:57;2.70;;;0.93;;
8665;SDS011;4370;48.916;8.380;2023-08-06T06:00:23;2.37;;;1.23;;
8665;SDS011;4370;48.916;8.380;2023-08-06T06:02:49;1.93;;;1.20;;
8665;SDS011;4370;48.916;8.380;2023-08-06T06:05:15;3.33;;;0.90;;
8665;SDS011;4370;48.916;8.380;2023-08-06T06:07:41;1.67;;;0.93;;
8665;SDS011;4370;48.916;8.380;2023-08-06T06:10:07;3.17;;;0.90;;
8665;SDS011;4370;48.916;8.380;2023-08-06T06:12:33;1.07;;;0.80;;
8665;SDS011;4370;48.916;8.380;2023-08-06T06:14:59;1.77;;;0.80;;
8665;SDS011;4370;48.916;8.380;2023-08-06T06:17:26;2.10;;;0.87;;
8665;SDS011;4370;48.916;8.380;2023-08-06T06:19:52;2.20;;;0.87;;
8665;SDS011;4370;48.916;8.380;2023-08-06T06:22:18;2.00;;;0.80;;
8665;SDS011;4370;48.916;8.380;2023-08-06T06:24:44;1.83;;;0.90;;
8665;SDS011;4370;48.916;8.380;2023-08-06T06:27:10;2.73;;;0.93;;
8665;SDS011;4370;48.916;8.380;2023-08-06T06:29:36;0.80;;;0.80;;
8665;SDS011;4370;48.916;8.380;2023-08-06T06:32:02;2.07;;;0.90;;
8665;SDS011;4370;48.916;8.380;2023-08-06T06:34:28;1.10;;;1.00;;
8665;SDS011;4370;48.916;8.380;2023-08-06T06:36:53;2.37;;;1.13;;
8665;SDS011;4370;48.916;8.380;2023-08-06T06:39:20;1.43;;;1.00;;
8665;SDS011;4370;48.916;8.380;2023-08-06T06:41:46;1.23;;;0.83;;
8665;SDS011;4370;48.916;8.380;2023-08-06T06:44:13;1.50;;;0.90;;
8665;SDS011;4370;48.916;8.380;2023-08-06T06:46:39;2.10;;;0.83;;
8665;SDS011;4370;48.916;8.380;2023-08-06T06:49:05;1.00;;;0.90;;
8665;SDS011;4370;48.916;8.380;2023-08-06T06:51:31;0.60;;;0.60;;
8665;SDS011;4370;48.916;8.380;2023-08-06T06:53:57;0.93;;;0.80;;
8665;SDS011;4370;48.916;8.380;2023-08-06T06:56:23;2.77;;;0.83;;
8665;SDS011;4370;48.916;8.380;2023-08-06T06:58:49;1.43;;;1.00;;
8665;SDS011;4370;48.916;8.380;2023-08-06T07:01:15;2.40;;;1.30;;
8665;SDS011;4370;48.916;8.380;2023-08-06T07:03:41;1.97;;;0.80;;
8665;SDS011;4370;48.916;8.380;2023-08-06T07:06:07;1.90;;;0.90;;
8665;SDS011;4370;48.916;8.380;2023-08-06T07:08:33;1.80;;;0.87;;
8665;SDS011;4370;48.916;8.380;2023-08-06T07:11:03;2.10;;;1.10;;
8665;SDS011;4370;48.916;8.380;2023-08-06T07:13:29;3.47;;;1.07;;
8665;SDS011;4370;48.916;8.380;2023-08-06T07:15:55;3.23;;;1.00;;
8665;SDS011;4370;48.916;8.380;2023-08-06T07:18:22;1.80;;;1.10;;
8665;SDS011;4370;48.916;8.380;2023-08-06T07:20:48;1.33;;;0.80;;
8665;SDS011;4370;48.916;8.380;2023-08-06T07:23:14;2.50;;;0.93;;
8665;SDS011;4370;48.916;8.380;2023-08-06T07:25:40;1.70;;;0.90;;
8665;SDS011;4370;48.916;8.380;2023-08-06T07:28:07;1.63;;;0.90;;
8665;SDS011;4370;48.916;8.380;2023-08-06T07:30:33;1.47;;;0.77;;
8665;SDS011;4370;48.916;8.380;2023-08-06T07:32:59;0.67;;;0.67;;
8665;SDS011;4370;48.916;8.380;2023-08-06T07:35:28;0.97;;;0.67;;
8665;SDS011;4370;48.916;8.380;2023-08-06T07:37:54;0.83;;;0.70;;
8665;SDS011;4370;48.916;8.380;2023-08-06T07:40:20;0.87;;;0.50;;
8665;SDS011;4370;48.916;8.380;2023-08-06T07:42:46;0.63;;;0.63;;
8665;SDS011;4370;48.916;8.380;2023-08-06T07:45:11;0.63;;;0.50;;
8665;SDS011;4370;48.916;8.380;2023-08-06T07:47:37;1.23;;;0.60;;
8665;SDS011;4370;48.916;8.380;2023-08-06T07:50:04;0.70;;;0.70;;
8665;SDS011;4370;48.916;8.380;2023-08-06T07:52:30;1.23;;;0.70;;
8665;SDS011;4370;48.916;8.380;2023-08-06T07:54:56;0.80;;;0.60;;
8665;SDS011;4370;48.916;8.380;2023-08-06T07:57:22;0.80;;;0.80;;
8665;SDS011;4370;48.916;8.380;2023-08-06T07:59:48;2.53;;;0.87;;
8665;SDS011;4370;48.916;8.380;2023-08-06T08:02:14;2.23;;;0.90;;
8665;SDS011;4370;48.916;8.380;2023-08-06T08:04:39;0.80;;;0.70;;
8665;SDS011;4370;48.916;8.380;2023-08-06T08:07:05;1.13;;;0.60;;
8665;SDS011;4370;48.916;8.380;2023-08-06T08:09:31;0.60;;;0.60;;
8665;SDS011;4370;48.916;8.380;2023-08-06T08:11:57;0.87;;;0.63;;
8665;SDS011;4370;48.916;8.380;2023-08-06T08:14:26;0.93;;;0.60;;
8665;SDS011;4370;48.916;8.380;2023-08-06T08:16:52;0.60;;;0.60;;
8665;SDS011;4370;48.916;8.380;2023-08-06T08:19:17;1.13;;;0.70;;
8665;SDS011;4370;48.916;8.380;2023-08-06T08:21:44;1.03;;;0.70;;
8665;SDS011;4370;48.916;8.380;2023-08-06T08:24:10;1.20;;;0.70;;
8665;SDS011;4370;48.916;8.380;2023-08-06T08:26:36;1.67;;;0.60;;
8665;SDS011;4370;48.916;8.380;2023-08-06T08:29:02;0.73;;;0.70;;
8665;SDS011;4370;48.916;8.380;2023-08-06T08:31:28;1.33;;;0.80;;
8665;SDS011;4370;48.916;8.380;2023-08-06T08:33:54;0.70;;;0.60;;
8665;SDS011;4370;48.916;8.380;2023-08-06T08:36:20;0.90;;;0.60;;
8665;SDS011;4370;48.916;8.380;2023-08-06T08:38:46;3.57;;;1.00;;
8665;SDS011;4370;48.916;8.380;2023-08-06T08:41:12;1.33;;;0.90;;
8665;SDS011;4370;48.916;8.380;2023-08-06T08:43:38;2.27;;;1.13;;
8665;SDS011;4370;48.916;8.380;2023-08-06T08:46:05;2.93;;;0.90;;
8665;SDS011;4370;48.916;8.380;2023-08-06T08:48:32;3.60;;;1.17;;
8665;SDS011;4370;48.916;8.380;2023-08-06T08:50:58;1.97;;;0.80;;
8665;SDS011;4370;48.916;8.380;2023-08-06T08:53:24;1.07;;;0.80;;
8665;SDS011;4370;48.916;8.380;2023-08-06T08:55:50;2.53;;;1.00;;
8665;SDS011;4370;48.916;8.380;2023-08-06T08:58:16;1.80;;;0.80;;
8665;SDS011;4370;48.916;8.380;2023-08-06T09:00:43;1.17;;;0.70;;
8665;SDS011;4370;48.916;8.380;2023-08-06T09:03:11;1.47;;;0.77;;
8665;SDS011;4370;48.916;8.380;2023-08-06T09:05:37;2.67;;;1.10;;
8665;SDS011;4370;48.916;8.380;2023-08-06T09:08:04;1.97;;;0.93;;
8665;SDS011;4370;48.916;8.380;2023-08-06T09:10:31;2.03;;;0.83;;
8665;SDS011;4370;48.916;8.380;2023-08-06T09:12:57;1.03;;;0.80;;
8665;SDS011;4370;48.916;8.380;2023-08-06T09:15:26;1.87;;;1.00;;
8665;SDS011;4370;48.916;8.380;2023-08-06T09:17:53;2.37;;;1.30;;
8665;SDS011;4370;48.916;8.380;2023-08-06T09:20:19;2.00;;;1.10;;
8665;SDS011;4370;48.916;8.380;2023-08-06T09:22:45;2.47;;;0.97;;
8665;SDS011;4370;48.916;8.380;2023-08-06T09:25:13;2.30;;;0.80;;
8665;SDS011;4370;48.916;8.380;2023-08-06T09:27:46;2.20;;;0.93;;
8665;SDS011;4370;48.916;8.380;2023-08-06T09:30:12;0.87;;;0.83;;
8665;SDS011;4370;48.916;8.380;2023-08-06T09:32:54;1.50;;;0.77;;
8665;SDS011;4370;48.916;8.380;2023-08-06T09:35:21;2.50;;;0.93;;
8665;SDS011;4370;48.916;8.380;2023-08-06T09:37:47;1.43;;;0.90;;
8665;SDS011;4370;48.916;8.380;2023-08-06T09:40:26;1.53;;;0.90;;
8665;SDS011;4370;48.916;8.380;2023-08-06T09:42:52;1.03;;;0.90;;
8665;SDS011;4370;48.916;8.380;2023-08-06T09:45:18;0.80;;;0.80;;
8665;SDS011;4370;48.916;8.380;2023-08-06T09:47:44;0.80;;;0.80;;
8665;SDS011;4370;48.916;8.380;2023-08-06T09:50:17;2.53;;;1.10;;
8665;SDS011;4370;48.916;8.380;2023-08-06T09:52:43;1.37;;;0.83;;
8665;SDS011;4370;48.916;8.380;2023-08-06T09:55:12;0.70;;;0.70;;
8665;SDS011;4370;48.916;8.380;2023-08-06T09:57:39;0.87;;;0.83;;
8665;SDS011;4370;48.916;8.380;2023-08-06T10:00:06;1.13;;;0.80;;
8665;SDS011;4370;48.916;8.380;2023-08-06T10:02:34;1.93;;;1.30;;
8665;SDS011;4370;48.916;8.380;2023-08-06T10:05:01;0.80;;;0.80;;
8665;SDS011;4370;48.916;8.380;2023-08-06T10:07:27;1.60;;;0.80;;
8665;SDS011;4370;48.916;8.380;2023-08-06T10:09:55;1.73;;;0.90;;
8665;SDS011;4370;48.916;8.380;2023-08-06T10:12:21;1.20;;;0.90;;
8665;SDS011;4370;48.916;8.380;2023-08-06T10:14:50;1.77;;;0.87;;
8665;SDS011;4370;48.916;8.380;2023-08-06T10:17:16;1.20;;;1.00;;
8665;SDS011;4370;48.916;8.380;2023-08-06T10:19:42;1.03;;;0.97;;
8665;SDS011;4370;48.916;8.380;2023-08-06T10:22:12;1.07;;;1.00;;
8665;SDS011;4370;48.916;8.380;2023-08-06T10:24:51;1.13;;;1.07;;
8665;SDS011;4370;48.916;8.380;2023-08-06T10:27:33;1.63;;;1.00;;
8665;SDS011;4370;48.916;8.380;2023-08-06T10:32:48;0.80;;;0.80;;
8665;SDS011;4370;48.916;8.380;2023-08-06T10:35:35;1.00;;;1.00;;
8665;SDS011;4370;48.916;8.380;2023-08-06T10:38:04;1.50;;;1.00;;
8665;SDS011;4370;48.916;8.380;2023-08-06T10:40:31;1.17;;;1.07;;
8665;SDS011;4370;48.916;8.380;2023-08-06T10:43:00;1.67;;;1.20;;
8665;SDS011;4370;48.916;8.380;2023-08-06T10:45:26;2.20;;;1.00;;
8665;SDS011;4370;48.916;8.380;2023-08-06T10:47:56;1.33;;;1.10;;
8665;SDS011;4370;48.916;8.380;2023-08-06T10:50:22;1.37;;;1.10;;
8665;SDS011;4370;48.916;8.380;2023-08-06T10:52:48;1.20;;;1.10;;
8665;SDS011;4370;48.916;8.380;2023-08-06T10:55:21;1.50;;;1.27;;
8665;SDS011;4370;48.916;8.380;2023-08-06T10:57:48;1.83;;;1.33;;
8665;SDS011;4370;48.916;8.380;2023-08-06T11:00:14;2.67;;;1.50;;
8665;SDS011;4370;48.916;8.380;2023-08-06T11:02:40;1.73;;;1.60;;
8665;SDS011;4370;48.916;8.380;2023-08-06T11:05:06;1.60;;;1.50;;
8665;SDS011;4370;48.916;8.380;2023-08-06T11:07:32;1.57;;;1.47;;
8665;SDS011;4370;48.916;8.380;2023-08-06T11:10:05;2.47;;;1.57;;
8665;SDS011;4370;48.916;8.380;2023-08-06T11:12:32;4.37;;;1.80;;
8665;SDS011;4370;48.916;8.380;2023-08-06T11:14:58;1.80;;;1.70;;
8665;SDS011;4370;48.916;8.380;2023-08-06T11:17:24;3.37;;;1.97;;
8665;SDS011;4370;48.916;8.380;2023-08-06T11:19:51;3.53;;;1.90;;
8665;SDS011;4370;48.916;8.380;2023-08-06T11:22:17;3.20;;;1.90;;
8665;SDS011;4370;48.916;8.380;2023-08-06T11:24:43;3.07;;;1.90;;
8665;SDS011;4370;48.916;8.380;2023-08-06T11:27:12;2.67;;;1.83;;
8665;SDS011;4370;48.916;8.380;2023-08-06T11:29:39;4.27;;;2.20;;
8665;SDS011;4370;48.916;8.380;2023-08-06T11:32:05;4.37;;;2.03;;
8665;SDS011;4370;48.916;8.380;2023-08-06T11:34:31;3.07;;;1.93;;
8665;SDS011;4370;48.916;8.380;2023-08-06T11:36:57;2.60;;;2.20;;
8665;SDS011;4370;48.916;8.380;2023-08-06T11:39:23;3.30;;;2.20;;
8665;SDS011;4370;48.916;8.380;2023-08-06T11:41:50;3.60;;;2.20;;
8665;SDS011;4370;48.916;8.380;2023-08-06T11:44:18;2.47;;;2.23;;
8665;SDS011;4370;48.916;8.380;2023-08-06T11:46:54;4.93;;;2.50;;
8665;SDS011;4370;48.916;8.380;2023-08-06T11:49:38;3.47;;;2.30;;
8665;SDS011;4370;48.916;8.380;2023-08-06T11:52:13;3.57;;;2.13;;
8665;SDS011;4370;48.916;8.380;2023-08-06T11:54:40;4.03;;;1.87;;
8665;SDS011;4370;48.916;8.380;2023-08-06T11:57:06;4.03;;;2.00;;
8665;SDS011;4370;48.916;8.380;2023-08-06T11:59:32;3.73;;;2.03;;
8665;SDS011;4370;48.916;8.380;2023-08-06T12:01:59;4.00;;;1.90;;
8665;SDS011;4370;48.916;8.380;2023-08-06T12:04:26;5.10;;;1.93;;
8665;SDS011;4370;48.916;8.380;2023-08-06T12:06:52;7.67;;;1.70;;
8665;SDS011;4370;48.916;8.380;2023-08-06T12:09:18;2.30;;;1.77;;
8665;SDS011;4370;48.916;8.380;2023-08-06T12:11:45;2.00;;;1.80;;
8665;SDS011;4370;48.916;8.380;2023-08-06T12:14:11;2.57;;;1.80;;
8665;SDS011;4370;48.916;8.380;2023-08-06T12:16:37;3.93;;;1.97;;
8665;SDS011;4370;48.916;8.380;2023-08-06T12:19:03;6.23;;;1.70;;
8665;SDS011;4370;48.916;8.380;2023-08-06T12:21:29;3.80;;;1.70;;
8665;SDS011;4370;48.916;8.380;2023-08-06T12:23:55;2.63;;;1.73;;
8665;SDS011;4370;48.916;8.380;2023-08-06T12:26:21;4.33;;;1.50;;
8665;SDS011;4370;48.916;8.380;2023-08-06T12:28:47;1.80;;;1.60;;
8665;SDS011;4370;48.916;8.380;2023-08-06T12:31:14;3.17;;;1.43;;
8665;SDS011;4370;48.916;8.380;2023-08-06T12:33:40;1.80;;;1.60;;
8665;SDS011;4370;48.916;8.380;2023-08-06T12:36:06;4.00;;;1.50;;
8665;SDS011;4370;48.916;8.380;2023-08-06T12:38:32;2.70;;;1.53;;
8665;SDS011;4370;48.916;8.380;2023-08-06T12:40:58;2.17;;;1.30;;
8665;SDS011;4370;48.916;8.380;2023-08-06T12:43:24;1.63;;;1.33;;
8665;SDS011;4370;48.916;8.380;2023-08-06T12:45:50;2.70;;;1.33;;
8665;SDS011;4370;48.916;8.380;2023-08-06T12:48:16;1.77;;;1.30;;
8665;SDS011;4370;48.916;8.380;2023-08-06T12:50:42;2.80;;;1.20;;
8665;SDS011;4370;48.916;8.380;2023-08-06T12:53:08;2.40;;;1.40;;
8665;SDS011;4370;48.916;8.380;2023-08-06T12:55:34;1.50;;;1.10;;
8665;SDS011;4370;48.916;8.380;2023-08-06T12:58:00;2.87;;;1.10;;
8665;SDS011;4370;48.916;8.380;2023-08-06T13:00:26;1.30;;;1.10;;
8665;SDS011;4370;48.916;8.380;2023-08-06T13:02:52;1.67;;;1.10;;
8665;SDS011;4370;48.916;8.380;2023-08-06T13:05:18;0.93;;;0.90;;
8665;SDS011;4370;48.916;8.380;2023-08-06T13:07:44;5.93;;;1.20;;
8665;SDS011;4370;48.916;8.380;2023-08-06T13:10:10;1.10;;;1.00;;
8665;SDS011;4370;48.916;8.380;2023-08-06T13:12:36;1.03;;;0.93;;
8665;SDS011;4370;48.916;8.380;2023-08-06T13:15:02;0.93;;;0.90;;
8665;SDS011;4370;48.916;8.380;2023-08-06T13:17:28;3.83;;;1.50;;
8665;SDS011;4370;48.916;8.380;2023-08-06T13:19:54;1.00;;;0.90;;
8665;SDS011;4370;48.916;8.380;2023-08-06T13:22:20;1.23;;;1.10;;
8665;SDS011;4370;48.916;8.380;2023-08-06T13:24:46;0.90;;;0.90;;
8665;SDS011;4370;48.916;8.380;2023-08-06T13:27:12;2.97;;;1.07;;
8665;SDS011;4370;48.916;8.380;2023-08-06T13:29:38;2.87;;;1.00;;
8665;SDS011;4370;48.916;8.380;2023-08-06T13:32:04;1.23;;;0.90;;
8665;SDS011;4370;48.916;8.380;2023-08-06T13:34:30;2.07;;;1.00;;
8665;SDS011;4370;48.916;8.380;2023-08-06T13:36:56;2.43;;;1.00;;
8665;SDS011;4370;48.916;8.380;2023-08-06T13:39:22;1.40;;;1.00;;
8665;SDS011;4370;48.916;8.380;2023-08-06T13:41:48;0.90;;;0.87;;
8665;SDS011;4370;48.916;8.380;2023-08-06T13:44:14;1.70;;;1.30;;
8665;SDS011;4370;48.916;8.380;2023-08-06T13:46:40;1.20;;;1.07;;
8665;SDS011;4370;48.916;8.380;2023-08-06T13:49:06;1.77;;;1.10;;
8665;SDS011;4370;48.916;8.380;2023-08-06T13:51:32;2.40;;;1.00;;
8665;SDS011;4370;48.916;8.380;2023-08-06T13:54:00;3.77;;;1.07;;
8665;SDS011;4370;48.916;8.380;2023-08-06T13:56:26;2.47;;;1.20;;
8665;SDS011;4370;48.916;8.380;2023-08-06T13:58:54;1.23;;;1.00;;
8665;SDS011;4370;48.916;8.380;2023-08-06T14:01:20;1.20;;;1.07;;
8665;SDS011;4370;48.916;8.380;2023-08-06T14:03:46;2.10;;;1.10;;
8665;SDS011;4370;48.916;8.380;2023-08-06T14:06:12;1.10;;;1.00;;
8665;SDS011;4370;48.916;8.380;2023-08-06T14:08:38;3.43;;;1.10;;
8665;SDS011;4370;48.916;8.380;2023-08-06T14:11:05;2.33;;;1.00;;
8665;SDS011;4370;48.916;8.380;2023-08-06T14:13:31;1.87;;;1.00;;
8665;SDS011;4370;48.916;8.380;2023-08-06T14:15:57;0.90;;;0.90;;
8665;SDS011;4370;48.916;8.380;2023-08-06T14:18:23;1.77;;;1.00;;
8665;SDS011;4370;48.916;8.380;2023-08-06T14:20:49;1.67;;;1.00;;
8665;SDS011;4370;48.916;8.380;2023-08-06T14:23:15;1.00;;;0.80;;
8665;SDS011;4370;48.916;8.380;2023-08-06T14:25:41;2.33;;;1.13;;
8665;SDS011;4370;48.916;8.380;2023-08-06T14:28:07;1.27;;;0.90;;
8665;SDS011;4370;48.916;8.380;2023-08-06T14:30:34;3.30;;;1.10;;
8665;SDS011;4370;48.916;8.380;2023-08-06T14:33:00;1.10;;;0.90;;
8665;SDS011;4370;48.916;8.380;2023-08-06T14:35:26;1.80;;;1.00;;
8665;SDS011;4370;48.916;8.380;2023-08-06T14:37:52;2.73;;;1.33;;
8665;SDS011;4370;48.916;8.380;2023-08-06T14:40:18;5.43;;;1.20;;
8665;SDS011;4370;48.916;8.380;2023-08-06T14:42:44;1.50;;;0.90;;
8665;SDS011;4370;48.916;8.380;2023-08-06T14:45:10;2.00;;;0.80;;
8665;SDS011;4370;48.916;8.380;2023-08-06T14:47:36;2.40;;;1.10;;
8665;SDS011;4370;48.916;8.380;2023-08-06T14:50:02;1.20;;;1.10;;
8665;SDS011;4370;48.916;8.380;2023-08-06T14:52:29;1.27;;;0.90;;
8665;SDS011;4370;48.916;8.380;2023-08-06T14:54:55;1.97;;;0.93;;
8665;SDS011;4370;48.916;8.380;2023-08-06T14:57:21;2.73;;;0.83;;
8665;SDS011;4370;48.916;8.380;2023-08-06T14:59:52;2.40;;;1.17;;
8665;SDS011;4370;48.916;8.380;2023-08-06T15:02:18;1.63;;;0.93;;
8665;SDS011;4370;48.916;8.380;2023-08-06T15:04:44;2.67;;;1.10;;
8665;SDS011;4370;48.916;8.380;2023-08-06T15:07:10;1.97;;;0.90;;
8665;SDS011;4370;48.916;8.380;2023-08-06T15:09:36;2.23;;;1.13;;
8665;SDS011;4370;48.916;8.380;2023-08-06T15:12:02;1.27;;;0.90;;
8665;SDS011;4370;48.916;8.380;2023-08-06T15:14:28;3.37;;;1.23;;
8665;SDS011;4370;48.916;8.380;2023-08-06T15:16:54;1.47;;;1.30;;